Time;durP1;ratioP1;P1;durP2;ratioP2;P2;SDS_P1;SDS_P2;PMS_P1;PMS_P2;Temp;Humidity;BMP_temperature;BMP_pressure;BME280_temperature;BME280_humidity;BME280_pressure;Samples;Min_cycle;Max_cycle;Signal;HPM_P1;HPM_P2
2024/02/28 00:01:50;;;;;;;24.13;15.40;;;;;;;;;;4978183;28;20206;-86
2024/02/28 00:04:55;;;;;;;22.67;14.83;;;;;;;;;;4978175;28;20178;-87
2024/02/28 00:07:59;;;;;;;23.17;15.03;;;;;;;;;;5000654;28;20216;-87
2024/02/28 00:11:03;;;;;;;25.77;15.73;;;;;;;;;;4977867;28;20190;-87
2024/02/28 00:14:07;;;;;;;25.87;15.30;;;;;;;;;;4989165;28;20182;-87
2024/02/28 00:17:13;;;;;;;23.33;14.63;;;;;;;;;;5000101;28;20562;-87
2024/02/28 00:20:17;;;;;;;24.47;15.20;;;;;;;;;;4989024;28;20205;-87
2024/02/28 00:23:21;;;;;;;25.67;16.17;;;;;;;;;;5000309;28;20189;-87
2024/02/28 00:26:25;;;;;;;26.17;15.27;;;;;;;;;;4988442;28;20197;-87
2024/02/28 00:29:29;;;;;;;26.50;15.27;;;;;;;;;;4988754;28;20205;-87
2024/02/28 00:32:34;;;;;;;25.03;16.13;;;;;;;;;;4999534;28;20653;-87
2024/02/28 00:35:40;;;;;;;27.77;16.43;;;;;;;;;;4999672;28;20186;-87
2024/02/28 00:38:44;;;;;;;24.73;15.43;;;;;;;;;;4988748;28;20217;-87
2024/02/28 00:41:49;;;;;;;25.10;14.57;;;;;;;;;;4988525;28;20678;-87
2024/02/28 00:44:53;;;;;;;21.90;14.83;;;;;;;;;;5012010;28;20173;-87
2024/02/28 00:47:57;;;;;;;25.00;15.60;;;;;;;;;;4988378;28;20694;-88
2024/02/28 00:51:03;;;;;;;23.73;14.97;;;;;;;;;;4987793;28;20173;-87
2024/02/28 00:54:08;;;;;;;23.07;14.73;;;;;;;;;;5011253;28;20178;-87
2024/02/28 00:57:12;;;;;;;27.97;16.07;;;;;;;;;;4999275;28;20222;-87
2024/02/28 01:00:18;;;;;;;25.30;15.63;;;;;;;;;;5011620;28;20280;-87
2024/02/28 01:03:22;;;;;;;26.27;16.03;;;;;;;;;;4987700;28;20178;-87
2024/02/28 01:06:27;;;;;;;23.57;15.07;;;;;;;;;;4976758;28;20177;-87
2024/02/28 01:09:31;;;;;;;24.50;15.90;;;;;;;;;;4977205;28;20178;-86
2024/02/28 01:12:35;;;;;;;24.53;15.57;;;;;;;;;;4998923;28;20630;-87
2024/02/28 01:15:41;;;;;;;24.50;15.43;;;;;;;;;;4988177;28;20185;-87
2024/02/28 01:18:46;;;;;;;26.03;16.40;;;;;;;;;;5010540;28;20220;-86
2024/02/28 01:21:50;;;;;;;26.97;16.57;;;;;;;;;;4987732;28;20704;-87
2024/02/28 01:24:54;;;;;;;26.53;16.00;;;;;;;;;;4999160;28;20348;-87
2024/02/28 01:27:59;;;;;;;24.03;15.97;;;;;;;;;;5010353;28;20562;-87
2024/02/28 01:31:03;;;;;;;28.00;15.50;;;;;;;;;;4998968;28;20626;-87
2024/02/28 01:34:08;;;;;;;28.73;17.23;;;;;;;;;;4987138;28;20177;-87
2024/02/28 01:37:12;;;;;;;30.90;17.83;;;;;;;;;;5010318;28;20217;-87
2024/02/28 01:40:17;;;;;;;25.17;15.77;;;;;;;;;;5010811;28;20515;-87
2024/02/28 01:43:21;;;;;;;27.33;17.50;;;;;;;;;;4976073;28;20177;-87
2024/02/28 01:46:29;;;;;;;31.27;18.27;;;;;;;;;;4998612;28;20189;-86
2024/02/28 01:49:33;;;;;;;36.07;19.83;;;;;;;;;;4987433;28;20182;-87
2024/02/28 01:52:39;;;;;;;34.87;19.90;;;;;;;;;;4987610;28;20626;-87
2024/02/28 01:55:43;;;;;;;30.27;18.70;;;;;;;;;;4987000;28;20177;-87
2024/02/28 01:58:49;;;;;;;27.80;17.10;;;;;;;;;;4987064;28;20214;-87
2024/02/28 02:01:54;;;;;;;30.23;18.53;;;;;;;;;;5000643;28;20205;-87
2024/02/28 02:04:59;;;;;;;31.90;19.33;;;;;;;;;;5001470;28;20638;-87
2024/02/28 02:08:04;;;;;;;34.80;19.57;;;;;;;;;;4990359;28;20217;-87
2024/02/28 02:11:08;;;;;;;33.43;19.07;;;;;;;;;;5001478;28;20178;-87
2024/02/28 02:14:13;;;;;;;31.30;18.23;;;;;;;;;;5001335;28;20181;-87
2024/02/28 02:17:17;;;;;;;28.93;18.27;;;;;;;;;;4978900;28;20213;-86
2024/02/28 02:20:22;;;;;;;31.87;18.97;;;;;;;;;;4990316;28;20178;-87
2024/02/28 02:23:27;;;;;;;32.40;19.10;;;;;;;;;;5013513;28;20178;-87
2024/02/28 02:26:31;;;;;;;33.30;20.03;;;;;;;;;;5001318;28;20174;-87
2024/02/28 02:29:35;;;;;;;27.20;17.87;;;;;;;;;;4990033;28;20213;-87
2024/02/28 02:32:39;;;;;;;30.87;18.03;;;;;;;;;;5013326;28;20177;-86
2024/02/28 02:35:44;;;;;;;31.40;19.00;;;;;;;;;;5001155;28;20177;-87
2024/02/28 02:38:48;;;;;;;30.30;18.63;;;;;;;;;;5001397;28;20225;-87
2024/02/28 02:41:52;;;;;;;35.80;19.07;;;;;;;;;;4989680;28;20213;-87
2024/02/28 02:44:56;;;;;;;31.23;18.73;;;;;;;;;;5012494;28;20535;-86
2024/02/28 02:48:00;;;;;;;30.57;17.17;;;;;;;;;;4978704;28;20221;-87
2024/02/28 02:51:04;;;;;;;29.77;17.37;;;;;;;;;;5000920;28;20178;-87
2024/02/28 02:54:08;;;;;;;33.53;19.87;;;;;;;;;;4989991;28;20181;-87
2024/02/28 02:57:12;;;;;;;32.73;19.20;;;;;;;;;;5000399;28;20221;-87
2024/02/28 03:00:16;;;;;;;37.20;21.60;;;;;;;;;;4978608;28;20182;-87
2024/02/28 03:03:20;;;;;;;33.10;19.00;;;;;;;;;;5000633;28;20182;-87
2024/02/28 03:06:25;;;;;;;34.47;20.90;;;;;;;;;;4978287;28;20190;-87
2024/02/28 03:09:28;;;;;;;34.10;19.90;;;;;;;;;;4989222;28;20186;-87
2024/02/28 03:12:32;;;;;;;33.30;20.10;;;;;;;;;;4988869;28;20630;-87
2024/02/28 03:15:37;;;;;;;34.60;19.07;;;;;;;;;;5012490;28;20182;-87
2024/02/28 03:18:41;;;;;;;33.77;19.70;;;;;;;;;;5012471;28;20213;-87
2024/02/28 03:21:45;;;;;;;34.00;19.70;;;;;;;;;;5012394;28;20213;-87
2024/02/28 03:24:49;;;;;;;29.80;19.33;;;;;;;;;;5012804;28;20653;-87
2024/02/28 03:27:54;;;;;;;31.67;19.57;;;;;;;;;;5000960;28;20217;-87
2024/02/28 03:30:58;;;;;;;27.30;16.93;;;;;;;;;;5000990;28;20630;-87
2024/02/28 03:34:04;;;;;;;28.27;17.23;;;;;;;;;;4989862;28;20185;-87
2024/02/28 03:37:08;;;;;;;33.27;19.10;;;;;;;;;;4989698;28;20217;-87
2024/02/28 03:40:12;;;;;;;34.50;19.40;;;;;;;;;;4989116;28;20186;-87
2024/02/28 03:43:16;;;;;;;33.53;19.57;;;;;;;;;;4989269;28;20173;-87
2024/02/28 03:46:21;;;;;;;35.13;19.53;;;;;;;;;;5000500;28;20178;-87
2024/02/28 03:49:25;;;;;;;32.83;19.13;;;;;;;;;;5012494;28;20186;-87
2024/02/28 03:52:30;;;;;;;31.67;19.73;;;;;;;;;;5000263;28;20634;-87
2024/02/28 03:55:33;;;;;;;33.60;19.70;;;;;;;;;;5000648;28;20181;-87
2024/02/28 03:58:39;;;;;;;33.13;18.80;;;;;;;;;;4989680;28;20211;-87
2024/02/28 04:01:43;;;;;;;31.47;19.93;;;;;;;;;;4989019;28;20206;-87
2024/02/28 04:04:47;;;;;;;36.53;19.60;;;;;;;;;;4989269;28;20182;-87
2024/02/28 04:07:51;;;;;;;38.40;20.77;;;;;;;;;;5000194;28;20221;-87
2024/02/28 04:10:55;;;;;;;35.20;21.13;;;;;;;;;;5011989;28;20185;-87
2024/02/28 04:13:59;;;;;;;36.37;20.53;;;;;;;;;;5000205;28;20173;-87
2024/02/28 04:17:04;;;;;;;40.03;21.63;;;;;;;;;;5000244;28;20209;-87
2024/02/28 04:20:12;;;;;;;37.63;21.57;;;;;;;;;;5000165;28;20638;-87
2024/02/28 04:23:17;;;;;;;39.63;21.73;;;;;;;;;;5012244;28;20213;-87
2024/02/28 04:26:21;;;;;;;36.50;21.50;;;;;;;;;;4999471;28;20177;-87
2024/02/28 04:29:25;;;;;;;37.80;21.47;;;;;;;;;;4999896;28;20216;-87
2024/02/28 04:32:29;;;;;;;34.47;21.43;;;;;;;;;;5035166;28;20178;-87
2024/02/28 04:35:34;;;;;;;39.03;22.37;;;;;;;;;;5000247;28;20190;-87
2024/02/28 04:38:38;;;;;;;35.50;21.03;;;;;;;;;;4988876;28;20213;-87
2024/02/28 04:41:42;;;;;;;39.80;21.73;;;;;;;;;;4988452;28;20554;-87
2024/02/28 04:44:46;;;;;;;40.20;22.17;;;;;;;;;;4988236;28;20182;-87
2024/02/28 04:47:52;;;;;;;36.20;21.50;;;;;;;;;;4999405;28;20217;-87
2024/02/28 04:50:56;;;;;;;37.50;20.97;;;;;;;;;;5011298;28;20181;-87
2024/02/28 04:54:00;;;;;;;35.50;20.23;;;;;;;;;;4988144;28;20660;-87
2024/02/28 04:57:04;;;;;;;38.07;22.37;;;;;;;;;;4977011;28;20217;-87
2024/02/28 05:00:09;;;;;;;36.90;21.30;;;;;;;;;;4999963;28;20190;-87
2024/02/28 05:03:13;;;;;;;35.47;20.83;;;;;;;;;;4987973;28;20206;-87
2024/02/28 05:06:18;;;;;;;37.97;20.77;;;;;;;;;;5010872;28;20181;-87
2024/02/28 05:09:22;;;;;;;33.47;19.93;;;;;;;;;;4999085;28;20174;-87
2024/02/28 05:12:26;;;;;;;39.73;22.20;;;;;;;;;;4998672;28;20174;-87
2024/02/28 05:15:30;;;;;;;36.87;21.77;;;;;;;;;;4998602;28;20538;-87
2024/02/28 05:18:34;;;;;;;44.53;24.07;;;;;;;;;;4987821;28;20217;-87
2024/02/28 05:21:41;;;;;;;40.53;22.00;;;;;;;;;;4987547;28;20213;-87
2024/02/28 05:24:46;;;;;;;40.27;21.90;;;;;;;;;;4999134;28;20182;-87
2024/02/28 05:27:50;;;;;;;41.03;22.47;;;;;;;;;;4998846;28;20217;-87
2024/02/28 05:30:54;;;;;;;45.00;22.77;;;;;;;;;;4998713;28;20182;-87
2024/02/28 05:33:59;;;;;;;39.47;22.53;;;;;;;;;;4998858;28;20174;-87
2024/02/28 05:37:03;;;;;;;40.13;21.10;;;;;;;;;;5001510;28;20221;-87
2024/02/28 05:40:09;;;;;;;41.70;22.27;;;;;;;;;;4979868;28;20178;-87
2024/02/28 05:43:13;;;;;;;41.00;22.53;;;;;;;;;;5001716;28;20206;-87
2024/02/28 05:46:18;;;;;;;41.03;22.43;;;;;;;;;;4991162;28;20189;-87
2024/02/28 05:49:22;;;;;;;52.03;23.67;;;;;;;;;;4990956;28;20182;-88
2024/02/28 05:52:27;;;;;;;42.10;22.93;;;;;;;;;;5013961;28;20182;-87
2024/02/28 05:55:31;;;;;;;44.70;22.50;;;;;;;;;;5013706;28;20182;-87
2024/02/28 05:58:36;;;;;;;43.03;23.67;;;;;;;;;;4979924;28;20590;-87
2024/02/28 06:01:40;;;;;;;42.63;23.77;;;;;;;;;;4990327;28;20178;-87
2024/02/28 06:04:44;;;;;;;46.03;24.33;;;;;;;;;;5001429;28;20182;-87
2024/02/28 06:07:48;;;;;;;40.30;23.00;;;;;;;;;;5001355;28;20221;-86
2024/02/28 06:10:53;;;;;;;45.80;23.63;;;;;;;;;;5001566;28;20174;-86
2024/02/28 06:13:57;;;;;;;45.77;23.83;;;;;;;;;;5001387;28;20170;-86
2024/02/28 06:17:01;;;;;;;42.70;23.67;;;;;;;;;;5001197;28;20210;-86
2024/02/28 06:20:06;;;;;;;41.33;22.43;;;;;;;;;;4990199;28;20190;-87
2024/02/28 06:23:11;;;;;;;30.37;17.63;;;;;;;;;;4990572;28;20205;-90
2024/02/28 06:26:16;;;;;;;45.00;24.53;;;;;;;;;;4979112;28;20177;-87
2024/02/28 06:29:22;;;;;;;45.00;24.43;;;;;;;;;;5001420;28;20554;-87
2024/02/28 06:32:26;;;;;;;39.43;23.10;;;;;;;;;;5001047;28;20178;-87
2024/02/28 06:35:30;;;;;;;41.50;23.73;;;;;;;;;;4991156;28;20178;-85
2024/02/28 06:38:37;;;;;;;42.27;23.10;;;;;;;;;;5001692;28;20213;-87
2024/02/28 06:41:42;;;;;;;41.87;23.50;;;;;;;;;;4990102;28;20178;-87
2024/02/28 06:44:46;;;;;;;42.23;24.03;;;;;;;;;;5001074;28;20186;-87
2024/02/28 06:47:50;;;;;;;38.73;22.57;;;;;;;;;;4978619;28;20567;-88
2024/02/28 06:50:56;;;;;;;38.20;22.30;;;;;;;;;;4991746;28;20181;-87
2024/02/28 06:53:59;;;;;;;43.13;24.23;;;;;;;;;;4994194;28;20178;-88
2024/02/28 06:57:04;;;;;;;47.13;25.80;;;;;;;;;;4994943;28;20689;-87
2024/02/28 07:00:11;;;;;;;43.10;24.90;;;;;;;;;;4994642;28;20190;-87
2024/02/28 07:03:15;;;;;;;45.67;23.47;;;;;;;;;;4984187;28;20205;-87
2024/02/28 07:06:19;;;;;;;48.00;23.77;;;;;;;;;;4995728;28;20185;-87
2024/02/28 07:09:30;;;;;;;43.13;24.17;;;;;;;;;;4983896;28;20646;-87
2024/02/28 07:12:35;;;;;;;43.30;24.00;;;;;;;;;;4991964;28;20178;-86
2024/02/28 07:15:40;;;;;;;47.23;24.67;;;;;;;;;;5002878;28;20182;-86
2024/02/28 07:18:43;;;;;;;47.23;25.13;;;;;;;;;;5005130;28;20213;-86
2024/02/28 07:21:47;;;;;;;44.00;22.30;;;;;;;;;;4993508;28;20181;-87
2024/02/28 07:24:51;;;;;;;40.63;22.87;;;;;;;;;;5004168;28;20182;-87
2024/02/28 07:27:59;;;;;;;40.50;22.67;;;;;;;;;;5004899;28;20725;-87
2024/02/28 07:31:03;;;;;;;41.30;23.47;;;;;;;;;;4984758;28;20177;-86
2024/02/28 07:34:08;;;;;;;49.87;24.70;;;;;;;;;;5020531;28;20173;-87
2024/02/28 07:37:12;;;;;;;50.30;24.03;;;;;;;;;;5011377;28;20213;-87
2024/02/28 07:40:17;;;;;;;39.70;22.80;;;;;;;;;;5000181;28;20173;-86
2024/02/28 07:43:21;;;;;;;42.27;23.43;;;;;;;;;;5010482;28;20214;-87
2024/02/28 07:46:25;;;;;;;45.07;23.63;;;;;;;;;;4999191;28;20630;-87
2024/02/28 07:49:30;;;;;;;47.47;25.13;;;;;;;;;;5010410;28;20182;-86
2024/02/28 07:52:35;;;;;;;45.73;24.20;;;;;;;;;;5021639;28;20209;-87
2024/02/28 07:55:39;;;;;;;46.20;23.90;;;;;;;;;;4997902;28;20193;-87
2024/02/28 07:58:43;;;;;;;43.47;24.47;;;;;;;;;;4997279;28;20221;-87
2024/02/28 08:01:48;;;;;;;45.57;23.53;;;;;;;;;;4997331;28;20178;-87
2024/02/28 08:04:52;;;;;;;46.37;24.60;;;;;;;;;;4996692;28;20181;-87
2024/02/28 08:07:56;;;;;;;43.37;22.87;;;;;;;;;;5008346;28;20220;-87
2024/02/28 08:11:00;;;;;;;46.57;24.43;;;;;;;;;;5007653;28;20178;-87
2024/02/28 08:14:04;;;;;;;46.17;24.97;;;;;;;;;;5007267;28;20178;-86
2024/02/28 08:17:08;;;;;;;47.57;24.77;;;;;;;;;;4995865;28;20221;-87
2024/02/28 08:20:13;;;;;;;45.67;23.00;;;;;;;;;;5007094;28;20182;-87
2024/02/28 08:23:18;;;;;;;43.27;23.43;;;;;;;;;;5006627;28;20205;-86
2024/02/28 08:26:23;;;;;;;45.57;23.00;;;;;;;;;;4994837;28;20190;-87
2024/02/28 08:29:27;;;;;;;44.63;23.67;;;;;;;;;;5005963;28;20201;-87
2024/02/28 08:32:32;;;;;;;41.33;23.77;;;;;;;;;;5005656;28;20182;-87
2024/02/28 08:35:36;;;;;;;45.03;24.67;;;;;;;;;;4993947;28;20182;-86
2024/02/28 08:38:41;;;;;;;46.60;24.83;;;;;;;;;;5004728;28;20324;-86
2024/02/28 08:41:45;;;;;;;47.10;24.50;;;;;;;;;;5004383;28;20185;-87
2024/02/28 08:44:49;;;;;;;43.87;24.00;;;;;;;;;;4993538;28;20177;-86
2024/02/28 08:47:53;;;;;;;40.87;23.67;;;;;;;;;;5003732;28;20567;-86
2024/02/28 08:50:57;;;;;;;46.10;24.93;;;;;;;;;;5015170;28;20177;-86
2024/02/28 08:54:02;;;;;;;43.13;23.17;;;;;;;;;;4991929;28;20174;-86
2024/02/28 08:57:07;;;;;;;42.13;23.80;;;;;;;;;;5002734;28;20222;-86
2024/02/28 09:00:12;;;;;;;42.17;22.33;;;;;;;;;;5014942;28;20186;-86
2024/02/28 09:03:17;;;;;;;44.13;23.27;;;;;;;;;;4979745;28;20205;-86
2024/02/28 09:06:20;;;;;;;39.23;21.93;;;;;;;;;;4990998;28;20193;-87
2024/02/28 09:09:25;;;;;;;44.23;23.10;;;;;;;;;;4991043;28;20189;-88
2024/02/28 09:12:28;;;;;;;44.23;23.17;;;;;;;;;;5005212;28;20528;-87
2024/02/28 09:15:34;;;;;;;41.30;22.17;;;;;;;;;;5017007;28;20515;-87
2024/02/28 09:18:39;;;;;;;45.00;22.63;;;;;;;;;;4982046;28;20221;-87
2024/02/28 09:21:43;;;;;;;43.60;22.23;;;;;;;;;;5016397;28;20185;-87
2024/02/28 09:24:48;;;;;;;42.93;23.43;;;;;;;;;;4993476;28;20213;-87
2024/02/28 09:27:53;;;;;;;38.10;21.53;;;;;;;;;;5006562;28;20217;-86
2024/02/28 09:31:21;;;;;;;39.97;21.47;;;;;;;;;;4995076;28;20177;-86
2024/02/28 09:34:28;;;;;;;43.23;23.20;;;;;;;;;;4995901;28;20663;-86
2024/02/28 09:37:32;;;;;;;45.10;24.97;;;;;;;;;;4995765;28;20213;-86
2024/02/28 09:40:38;;;;;;;39.37;21.87;;;;;;;;;;4992447;28;20185;-86
2024/02/28 09:43:44;;;;;;;37.70;21.23;;;;;;;;;;4998000;28;20210;-86
2024/02/28 09:46:51;;;;;;;42.37;23.23;;;;;;;;;;4997186;28;20630;-86
2024/02/28 09:50:01;;;;;;;37.60;20.80;;;;;;;;;;5020206;28;20182;-86
2024/02/28 09:53:05;;;;;;;37.60;21.80;;;;;;;;;;5017187;28;20185;-87
2024/02/28 09:56:10;;;;;;;37.17;20.60;;;;;;;;;;5006509;28;20213;-86
2024/02/28 09:59:17;;;;;;;38.90;22.10;;;;;;;;;;5019240;28;20181;-86
2024/02/28 10:02:23;;;;;;;38.33;22.50;;;;;;;;;;5007447;28;20181;-86
2024/02/28 10:05:28;;;;;;;37.43;21.33;;;;;;;;;;4996564;28;20178;-86
2024/02/28 10:08:34;;;;;;;42.90;22.13;;;;;;;;;;5006367;28;20213;-86
2024/02/28 10:11:43;;;;;;;43.07;22.70;;;;;;;;;;5008153;28;20630;-87
2024/02/28 10:14:51;;;;;;;39.63;21.40;;;;;;;;;;5042955;28;20173;-88
2024/02/28 10:17:55;;;;;;;71.30;37.37;;;;;;;;;;5002216;28;20213;-86
2024/02/28 10:20:59;;;;;;;44.53;25.60;;;;;;;;;;4991593;28;20182;-86
2024/02/28 10:24:05;;;;;;;39.10;22.20;;;;;;;;;;4994491;28;20213;-86
2024/02/28 10:27:09;;;;;;;38.77;23.07;;;;;;;;;;5004660;28;20221;-86
2024/02/28 10:30:16;;;;;;;38.83;21.57;;;;;;;;;;4994532;28;20178;-88
2024/02/28 10:33:22;;;;;;;43.00;24.20;;;;;;;;;;4990594;28;20182;-87
2024/02/28 10:36:29;;;;;;;37.77;22.83;;;;;;;;;;5003075;28;20181;-87
2024/02/28 10:39:35;;;;;;;38.63;21.73;;;;;;;;;;5000043;28;20181;-87
2024/02/28 10:42:42;;;;;;;38.80;23.07;;;;;;;;;;4987724;28;20531;-87
2024/02/28 10:45:46;;;;;;;42.33;21.33;;;;;;;;;;4998581;28;20174;-87
2024/02/28 10:48:52;;;;;;;42.43;22.40;;;;;;;;;;4999526;28;20213;-87
2024/02/28 10:51:58;;;;;;;42.80;21.97;;;;;;;;;;4989734;28;20177;-87
2024/02/28 10:55:04;;;;;;;38.07;21.93;;;;;;;;;;4999081;28;20182;-87
2024/02/28 10:58:14;;;;;;;38.20;21.63;;;;;;;;;;4999017;28;20218;-87
2024/02/28 11:01:19;;;;;;;40.73;22.87;;;;;;;;;;5009727;28;20178;-87
2024/02/28 11:04:23;;;;;;;41.30;22.23;;;;;;;;;;4998834;28;20209;-86
2024/02/28 11:07:30;;;;;;;77.27;25.40;;;;;;;;;;4989143;28;20221;-87
2024/02/28 11:10:35;;;;;;;41.50;22.37;;;;;;;;;;4990100;28;20182;-87
2024/02/28 11:13:39;;;;;;;37.90;22.00;;;;;;;;;;5001508;28;20169;-87
2024/02/28 11:16:46;;;;;;;39.90;22.27;;;;;;;;;;5010321;28;20182;-87
2024/02/28 11:19:51;;;;;;;41.47;22.43;;;;;;;;;;4988597;28;20178;-86
2024/02/28 11:22:59;;;;;;;48.10;22.93;;;;;;;;;;4990598;28;20182;-87
2024/02/28 11:26:04;;;;;;;40.10;21.53;;;;;;;;;;5001531;28;20178;-87
2024/02/28 11:29:08;;;;;;;41.63;23.07;;;;;;;;;;4988654;28;20201;-87
2024/02/28 11:32:15;;;;;;;38.57;22.43;;;;;;;;;;5011591;28;20185;-87
2024/02/28 11:35:21;;;;;;;39.80;22.20;;;;;;;;;;5000156;28;20182;-86
2024/02/28 11:38:26;;;;;;;37.97;21.07;;;;;;;;;;4989070;28;20213;-87
2024/02/28 11:41:30;;;;;;;36.90;21.67;;;;;;;;;;5000288;28;20186;-87
2024/02/28 11:44:34;;;;;;;37.40;21.63;;;;;;;;;;4989325;28;20209;-87
2024/02/28 11:47:39;;;;;;;41.27;24.97;;;;;;;;;;5010517;28;20217;-87
2024/02/28 11:50:43;;;;;;;55.37;29.43;;;;;;;;;;4985790;28;20182;-87
2024/02/28 11:53:47;;;;;;;61.87;32.77;;;;;;;;;;5016953;28;20181;-88
2024/02/28 11:56:52;;;;;;;52.60;26.63;;;;;;;;;;5007596;28;20940;-87
2024/02/28 11:59:56;;;;;;;73.63;38.10;;;;;;;;;;4986779;28;20178;-86
2024/02/28 12:03:05;;;;;;;100.83;46.43;;;;;;;;;;4990644;28;20174;-87
2024/02/28 12:06:11;;;;;;;76.70;39.90;;;;;;;;;;4986514;28;20177;-86
2024/02/28 12:09:15;;;;;;;72.40;36.33;;;;;;;;;;4986355;28;20181;-87
2024/02/28 12:12:19;;;;;;;60.80;31.30;;;;;;;;;;4997924;28;20186;-87
2024/02/28 12:15:24;;;;;;;104.50;49.03;;;;;;;;;;4997592;28;20178;-87
2024/02/28 12:18:29;;;;;;;54.87;29.27;;;;;;;;;;5008862;28;20224;-87
2024/02/28 12:21:33;;;;;;;46.77;27.33;;;;;;;;;;4997246;28;20186;-86
2024/02/28 12:24:37;;;;;;;43.63;23.63;;;;;;;;;;4997522;28;20201;-86
2024/02/28 12:27:42;;;;;;;39.57;22.17;;;;;;;;;;4986052;28;20217;-87
2024/02/28 12:30:46;;;;;;;39.87;22.43;;;;;;;;;;4998219;28;20186;-87
2024/02/28 12:33:50;;;;;;;37.13;21.83;;;;;;;;;;4995049;28;20178;-85
2024/02/28 12:36:55;;;;;;;38.83;21.57;;;;;;;;;;4995959;28;20213;-87
2024/02/28 12:39:59;;;;;;;37.53;20.53;;;;;;;;;;5001978;28;20177;-87
2024/02/28 12:43:03;;;;;;;37.60;21.90;;;;;;;;;;5003046;28;20177;-87
2024/02/28 12:46:08;;;;;;;36.50;20.93;;;;;;;;;;4990357;28;20174;-86
2024/02/28 12:49:12;;;;;;;32.10;17.80;;;;;;;;;;5057909;28;20642;-86
2024/02/28 12:52:16;;;;;;;39.33;20.70;;;;;;;;;;4990858;28;20181;-86
2024/02/28 12:55:21;;;;;;;35.43;20.53;;;;;;;;;;4989859;28;20182;-86
2024/02/28 12:58:26;;;;;;;31.07;19.30;;;;;;;;;;5000835;28;20213;-86
2024/02/28 13:01:30;;;;;;;31.13;19.57;;;;;;;;;;5001646;28;20181;-86
2024/02/28 13:04:35;;;;;;;34.47;20.40;;;;;;;;;;5003719;28;20213;-86
2024/02/28 13:07:39;;;;;;;31.57;19.03;;;;;;;;;;5015358;28;20217;-86
2024/02/28 13:10:44;;;;;;;34.33;20.03;;;;;;;;;;5005019;28;20177;-86
2024/02/28 13:13:49;;;;;;;33.57;20.27;;;;;;;;;;5016097;28;20178;-86
2024/02/28 13:16:54;;;;;;;29.23;18.20;;;;;;;;;;5005625;28;20197;-86
2024/02/28 13:19:59;;;;;;;31.13;18.40;;;;;;;;;;5016794;28;20185;-86
2024/02/28 13:23:04;;;;;;;34.37;19.10;;;;;;;;;;4993227;28;20181;-87
2024/02/28 13:26:08;;;;;;;29.20;18.40;;;;;;;;;;4994177;28;20170;-86
2024/02/28 13:29:12;;;;;;;33.43;20.33;;;;;;;;;;4993962;28;20289;-85
2024/02/28 13:32:16;;;;;;;30.20;19.07;;;;;;;;;;4989720;28;20524;-85
2024/02/28 13:35:22;;;;;;;36.33;20.07;;;;;;;;;;5000264;28;20178;-85
2024/02/28 13:38:26;;;;;;;30.50;18.03;;;;;;;;;;4978997;28;20217;-85
2024/02/28 13:41:30;;;;;;;33.53;19.90;;;;;;;;;;5013051;28;20190;-85
2024/02/28 13:44:36;;;;;;;29.23;17.67;;;;;;;;;;4978683;28;20209;-85
2024/02/28 13:47:40;;;;;;;29.77;17.67;;;;;;;;;;4988807;28;20213;-85
2024/02/28 13:50:45;;;;;;;33.20;20.27;;;;;;;;;;4977989;28;20185;-85
2024/02/28 13:53:52;;;;;;;34.30;19.13;;;;;;;;;;5000226;28;20186;-85
2024/02/28 13:56:56;;;;;;;35.33;20.03;;;;;;;;;;4990211;28;20226;-86
2024/02/28 14:00:00;;;;;;;32.27;19.40;;;;;;;;;;5003596;28;20618;-85
2024/02/28 14:03:06;;;;;;;31.10;18.33;;;;;;;;;;5003485;28;20185;-85
2024/02/28 14:06:10;;;;;;;30.40;17.90;;;;;;;;;;5003364;28;20213;-85
2024/02/28 14:09:14;;;;;;;26.90;17.00;;;;;;;;;;5015185;28;20182;-85
2024/02/28 14:12:18;;;;;;;31.40;18.73;;;;;;;;;;5015091;28;20181;-85
2024/02/28 14:15:22;;;;;;;30.43;18.10;;;;;;;;;;5015602;28;20634;-85
2024/02/28 14:18:27;;;;;;;33.23;17.87;;;;;;;;;;4993060;28;20217;-84
2024/02/28 14:21:31;;;;;;;28.73;17.37;;;;;;;;;;5003180;28;20181;-85
2024/02/28 14:24:38;;;;;;;47.73;24.57;;;;;;;;;;5007430;28;20209;-85
2024/02/28 14:27:46;;;;;;;40.80;22.23;;;;;;;;;;4992282;28;20221;-86
2024/02/28 14:30:52;;;;;;;33.73;18.97;;;;;;;;;;5008493;28;20190;-86
2024/02/28 14:33:57;;;;;;;34.07;19.60;;;;;;;;;;4996994;28;20177;-86
2024/02/28 14:37:02;;;;;;;32.80;19.40;;;;;;;;;;5019501;28;20562;-87
2024/02/28 14:40:11;;;;;;;38.00;20.53;;;;;;;;;;4996689;28;20186;-87
2024/02/28 14:43:16;;;;;;;31.43;18.30;;;;;;;;;;4995971;28;20174;-86
2024/02/28 14:46:21;;;;;;;30.73;17.57;;;;;;;;;;4992100;28;20547;-86
2024/02/28 14:49:25;;;;;;;31.00;18.63;;;;;;;;;;4995723;28;20185;-88
2024/02/28 14:52:30;;;;;;;35.67;19.43;;;;;;;;;;5005011;28;20181;-87
2024/02/28 14:55:34;;;;;;;29.80;16.93;;;;;;;;;;4996380;28;20174;-87
2024/02/28 14:58:39;;;;;;;26.73;16.47;;;;;;;;;;5003648;28;20217;-87
2024/02/28 15:01:43;;;;;;;29.33;17.27;;;;;;;;;;5016443;28;20519;-87
2024/02/28 15:04:49;;;;;;;30.83;18.57;;;;;;;;;;5002214;28;20221;-87
2024/02/28 15:07:54;;;;;;;31.47;18.13;;;;;;;;;;4990852;28;20213;-87
2024/02/28 15:10:58;;;;;;;32.70;18.10;;;;;;;;;;5001060;28;20190;-88
2024/02/28 15:14:03;;;;;;;36.43;19.10;;;;;;;;;;4996247;28;20185;-88
2024/02/28 15:17:08;;;;;;;33.30;17.17;;;;;;;;;;4996528;28;20209;-87
2024/02/28 15:20:12;;;;;;;30.47;17.97;;;;;;;;;;5013772;28;20190;-88
2024/02/28 15:23:16;;;;;;;31.20;17.10;;;;;;;;;;4992903;28;20181;-87
2024/02/28 15:26:21;;;;;;;27.33;16.37;;;;;;;;;;4989510;28;20213;-87
2024/02/28 15:29:27;;;;;;;29.60;16.13;;;;;;;;;;4993257;28;20678;-88
2024/02/28 15:32:32;;;;;;;27.97;16.70;;;;;;;;;;4990639;28;20178;-88
2024/02/28 15:35:36;;;;;;;24.30;14.67;;;;;;;;;;4979481;28;20178;-88
2024/02/28 15:38:40;;;;;;;28.93;15.90;;;;;;;;;;4990517;28;20213;-88
2024/02/28 15:41:44;;;;;;;27.20;16.63;;;;;;;;;;4990674;28;20181;-88
2024/02/28 15:44:49;;;;;;;26.70;15.37;;;;;;;;;;5037546;28;20532;-88
2024/02/28 15:47:53;;;;;;;26.93;16.27;;;;;;;;;;5048709;28;20225;-88
2024/02/28 15:50:57;;;;;;;26.53;15.03;;;;;;;;;;4990649;28;20185;-87
2024/02/28 15:54:02;;;;;;;26.97;16.20;;;;;;;;;;4990422;28;20186;-84
2024/02/28 15:57:05;;;;;;;30.87;14.90;;;;;;;;;;4989722;28;20213;-87
2024/02/28 16:00:10;;;;;;;25.07;14.77;;;;;;;;;;4990002;28;20189;-86
2024/02/28 16:03:18;;;;;;;27.97;13.67;;;;;;;;;;4990299;28;20178;-87
2024/02/28 16:06:24;;;;;;;25.27;16.10;;;;;;;;;;4978643;28;20578;-87
2024/02/28 16:09:28;;;;;;;23.40;14.33;;;;;;;;;;5001319;28;20186;-86
2024/02/28 16:12:32;;;;;;;21.20;14.57;;;;;;;;;;4989646;28;20181;-86
2024/02/28 16:15:36;;;;;;;23.67;14.20;;;;;;;;;;5000899;28;20181;-86
2024/02/28 16:18:40;;;;;;;26.93;15.17;;;;;;;;;;4989703;28;20566;-86
2024/02/28 16:21:49;;;;;;;29.40;15.53;;;;;;;;;;5001332;28;20178;-86
2024/02/28 16:24:52;;;;;;;26.47;16.23;;;;;;;;;;5000550;28;20185;-87
2024/02/28 16:27:56;;;;;;;25.00;15.47;;;;;;;;;;5000181;28;20221;-86
2024/02/28 16:31:03;;;;;;;26.30;15.27;;;;;;;;;;4989535;28;20173;-86
2024/02/28 16:34:10;;;;;;;26.03;14.27;;;;;;;;;;5000464;28;20178;-86
2024/02/28 16:37:14;;;;;;;24.43;14.10;;;;;;;;;;4990130;28;20217;-86
2024/02/28 16:40:19;;;;;;;26.47;14.30;;;;;;;;;;5001161;28;20538;-86
2024/02/28 16:43:23;;;;;;;23.67;14.83;;;;;;;;;;5012653;28;20194;-86
2024/02/28 16:46:28;;;;;;;29.60;15.03;;;;;;;;;;4989051;28;20209;-86
2024/02/28 16:49:32;;;;;;;27.43;14.73;;;;;;;;;;5000639;28;20182;-85
2024/02/28 16:52:36;;;;;;;28.67;15.63;;;;;;;;;;5012293;28;20190;-85
2024/02/28 16:55:41;;;;;;;25.73;14.53;;;;;;;;;;5012862;28;20182;-84
2024/02/28 16:58:45;;;;;;;26.20;15.57;;;;;;;;;;4988894;28;20217;-84
2024/02/28 17:01:50;;;;;;;24.23;14.33;;;;;;;;;;4989476;28;20185;-85
2024/02/28 17:04:54;;;;;;;27.13;15.43;;;;;;;;;;4999894;28;20209;-85
2024/02/28 17:07:58;;;;;;;28.27;14.87;;;;;;;;;;4999742;28;20213;-85
2024/02/28 17:11:03;;;;;;;28.93;16.13;;;;;;;;;;5000780;28;20181;-85
2024/02/28 17:14:07;;;;;;;28.83;15.93;;;;;;;;;;4988629;28;20181;-86
2024/02/28 17:17:12;;;;;;;26.20;15.57;;;;;;;;;;4977976;28;20209;-86
2024/02/28 17:20:18;;;;;;;23.57;14.63;;;;;;;;;;4977443;28;20219;-85
2024/02/28 17:23:25;;;;;;;28.20;15.80;;;;;;;;;;4988715;28;20182;-85
2024/02/28 17:26:30;;;;;;;29.17;16.63;;;;;;;;;;4988068;28;20209;-85
2024/02/28 17:29:36;;;;;;;31.13;16.97;;;;;;;;;;5011025;28;20213;-85
2024/02/28 17:32:40;;;;;;;30.97;17.27;;;;;;;;;;4991064;28;20177;-86
2024/02/28 17:35:44;;;;;;;33.33;19.27;;;;;;;;;;4981434;28;20186;-86
2024/02/28 17:38:48;;;;;;;30.53;17.53;;;;;;;;;;5003709;28;20221;-85
2024/02/28 17:41:53;;;;;;;29.80;15.77;;;;;;;;;;5004034;28;20182;-86
2024/02/28 17:44:57;;;;;;;29.53;16.60;;;;;;;;;;4992607;28;20177;-86
2024/02/28 17:48:02;;;;;;;29.97;14.67;;;;;;;;;;5003739;28;20551;-86
2024/02/28 17:51:07;;;;;;;24.30;15.07;;;;;;;;;;5003947;28;20189;-86
2024/02/28 17:54:13;;;;;;;27.10;16.00;;;;;;;;;;5003154;28;20182;-86